Cabanillas del Campo, Spain
Current Conditions -  °F | °C
As of 9:00 AM on Friday 19 Dec 2014 (Local Time) from LETO Reporting Station
Light Fog Light Fog  
Wind Chill: 34°   Ceiling: Unl
Heat Index: 34°   Visibility: 4mi
Dew Point: 34°   Wind: 2mph
Humidity: 100%   Direction: 20°NNE
Pressure: 30.45"   Gusts: NA
Location:  40.63°N, 3.23°W
Report Text: LETO 190800Z 02002KT 7000 1000NW BCFG NSC 01/01 Q1031 NOSIG
Loading
Personal Weather Stations






























Interactive Weather Map New forecast layout! Learn more

10-Day Weather Forecast

Advertisements
Track Severe Weather on mobile